sensor_id;sensor_type;location;lat;lon;timestamp;temperature;humidity
37786;DHT22;23625;48.784;9.336;2023-11-21T00:00:21;8.10;99.90
37786;DHT22;23625;48.784;9.336;2023-11-21T00:02:47;8.00;99.90
37786;DHT22;23625;48.784;9.336;2023-11-21T00:05:13;8.10;99.90
37786;DHT22;23625;48.784;9.336;2023-11-21T00:07:40;8.00;99.90
37786;DHT22;23625;48.784;9.336;2023-11-21T00:10:07;8.00;99.90
37786;DHT22;23625;48.784;9.336;2023-11-21T00:12:34;8.00;99.90
37786;DHT22;23625;48.784;9.336;2023-11-21T00:14:59;8.00;99.90
37786;DHT22;23625;48.784;9.336;2023-11-21T00:17:25;8.00;99.90
37786;DHT22;23625;48.784;9.336;2023-11-21T00:19:51;8.10;99.90
37786;DHT22;23625;48.784;9.336;2023-11-21T00:22:19;8.10;99.90
37786;DHT22;23625;48.784;9.336;2023-11-21T00:24:45;8.10;99.90
37786;DHT22;23625;48.784;9.336;2023-11-21T00:27:11;8.00;99.90
37786;DHT22;23625;48.784;9.336;2023-11-21T00:29:37;8.00;99.90
37786;DHT22;23625;48.784;9.336;2023-11-21T00:32:04;8.00;99.90
37786;DHT22;23625;48.784;9.336;2023-11-21T00:34:31;8.00;99.90
37786;DHT22;23625;48.784;9.336;2023-11-21T00:36:56;8.00;99.90
37786;DHT22;23625;48.784;9.336;2023-11-21T00:39:22;8.00;99.90
37786;DHT22;23625;48.784;9.336;2023-11-21T00:41:48;8.00;99.90
37786;DHT22;23625;48.784;9.336;2023-11-21T00:44:14;8.00;99.90
37786;DHT22;23625;48.784;9.336;2023-11-21T00:46:39;8.00;99.90
37786;DHT22;23625;48.784;9.336;2023-11-21T00:49:05;8.00;99.90
37786;DHT22;23625;48.784;9.336;2023-11-21T00:51:31;8.00;99.90
37786;DHT22;23625;48.784;9.336;2023-11-21T00:53:57;8.00;99.90
37786;DHT22;23625;48.784;9.336;2023-11-21T00:56:23;8.00;99.90
37786;DHT22;23625;48.784;9.336;2023-11-21T00:58:49;8.00;99.90
37786;DHT22;23625;48.784;9.336;2023-11-21T01:01:20;8.00;99.90
37786;DHT22;23625;48.784;9.336;2023-11-21T01:03:48;8.00;99.90
37786;DHT22;23625;48.784;9.336;2023-11-21T01:06:14;8.00;99.90
37786;DHT22;23625;48.784;9.336;2023-11-21T01:08:40;8.00;99.90
37786;DHT22;23625;48.784;9.336;2023-11-21T01:11:06;8.10;99.90
37786;DHT22;23625;48.784;9.336;2023-11-21T01:13:34;8.10;99.90
37786;DHT22;23625;48.784;9.336;2023-11-21T01:16:01;8.10;99.90
37786;DHT22;23625;48.784;9.336;2023-11-21T01:18:26;8.10;99.90
37786;DHT22;23625;48.784;9.336;2023-11-21T01:20:52;8.10;99.90
37786;DHT22;23625;48.784;9.336;2023-11-21T01:23:21;8.20;99.90
37786;DHT22;23625;48.784;9.336;2023-11-21T01:25:47;8.20;99.90
37786;DHT22;23625;48.784;9.336;2023-11-21T01:28:13;8.10;99.90
37786;DHT22;23625;48.784;9.336;2023-11-21T01:30:38;8.20;99.90
37786;DHT22;23625;48.784;9.336;2023-11-21T01:33:04;8.20;99.90
37786;DHT22;23625;48.784;9.336;2023-11-21T01:35:30;8.20;99.90
37786;DHT22;23625;48.784;9.336;2023-11-21T01:37:55;8.20;99.90
37786;DHT22;23625;48.784;9.336;2023-11-21T01:40:21;8.20;99.90
37786;DHT22;23625;48.784;9.336;2023-11-21T01:42:47;8.30;99.90
37786;DHT22;23625;48.784;9.336;2023-11-21T01:45:13;8.30;99.90
37786;DHT22;23625;48.784;9.336;2023-11-21T01:47:41;8.30;99.90
37786;DHT22;23625;48.784;9.336;2023-11-21T01:50:08;8.30;99.90
37786;DHT22;23625;48.784;9.336;2023-11-21T01:52:35;8.30;99.90
37786;DHT22;23625;48.784;9.336;2023-11-21T01:55:01;8.20;99.90
37786;DHT22;23625;48.784;9.336;2023-11-21T01:57:28;8.20;99.90
37786;DHT22;23625;48.784;9.336;2023-11-21T01:59:54;8.20;99.90
37786;DHT22;23625;48.784;9.336;2023-11-21T02:02:20;8.20;99.90
37786;DHT22;23625;48.784;9.336;2023-11-21T02:04:46;8.20;99.90
37786;DHT22;23625;48.784;9.336;2023-11-21T02:07:11;8.20;99.90
37786;DHT22;23625;48.784;9.336;2023-11-21T02:09:37;8.20;99.90
37786;DHT22;23625;48.784;9.336;2023-11-21T02:12:04;8.20;99.90
37786;DHT22;23625;48.784;9.336;2023-11-21T02:14:30;8.20;99.90
37786;DHT22;23625;48.784;9.336;2023-11-21T02:16:57;8.20;99.90
37786;DHT22;23625;48.784;9.336;2023-11-21T02:19:23;8.20;99.90
37786;DHT22;23625;48.784;9.336;2023-11-21T02:21:52;8.20;99.90
37786;DHT22;23625;48.784;9.336;2023-11-21T02:24:22;8.20;99.90
37786;DHT22;23625;48.784;9.336;2023-11-21T02:26:48;8.20;99.90
37786;DHT22;23625;48.784;9.336;2023-11-21T02:29:19;8.20;99.90
37786;DHT22;23625;48.784;9.336;2023-11-21T02:31:48;8.20;99.90
37786;DHT22;23625;48.784;9.336;2023-11-21T02:34:15;8.20;99.90
37786;DHT22;23625;48.784;9.336;2023-11-21T02:36:41;8.20;99.90
37786;DHT22;23625;48.784;9.336;2023-11-21T02:39:08;8.20;99.90
37786;DHT22;23625;48.784;9.336;2023-11-21T02:41:33;8.20;99.90
37786;DHT22;23625;48.784;9.336;2023-11-21T02:44:00;8.10;99.90
37786;DHT22;23625;48.784;9.336;2023-11-21T02:46:26;8.10;99.90
37786;DHT22;23625;48.784;9.336;2023-11-21T02:48:51;8.20;99.90
37786;DHT22;23625;48.784;9.336;2023-11-21T02:51:19;8.10;99.90
37786;DHT22;23625;48.784;9.336;2023-11-21T02:53:45;8.10;99.90
37786;DHT22;23625;48.784;9.336;2023-11-21T02:56:12;8.10;99.90
37786;DHT22;23625;48.784;9.336;2023-11-21T02:58:37;8.10;99.90
37786;DHT22;23625;48.784;9.336;2023-11-21T03:01:03;8.20;99.90
37786;DHT22;23625;48.784;9.336;2023-11-21T03:03:31;8.20;99.90
37786;DHT22;23625;48.784;9.336;2023-11-21T03:05:56;8.20;99.90
37786;DHT22;23625;48.784;9.336;2023-11-21T03:08:22;8.20;99.90
37786;DHT22;23625;48.784;9.336;2023-11-21T03:10:47;8.20;99.90
37786;DHT22;23625;48.784;9.336;2023-11-21T03:13:13;8.20;99.90
37786;DHT22;23625;48.784;9.336;2023-11-21T03:15:38;8.20;99.90
37786;DHT22;23625;48.784;9.336;2023-11-21T03:18:04;8.20;99.90
37786;DHT22;23625;48.784;9.336;2023-11-21T03:20:30;8.20;99.90
37786;DHT22;23625;48.784;9.336;2023-11-21T03:22:56;8.20;99.90
37786;DHT22;23625;48.784;9.336;2023-11-21T03:25:21;8.20;99.90
37786;DHT22;23625;48.784;9.336;2023-11-21T03:27:49;8.20;99.90
37786;DHT22;23625;48.784;9.336;2023-11-21T03:30:15;8.20;99.90
37786;DHT22;23625;48.784;9.336;2023-11-21T03:32:40;8.20;99.90
37786;DHT22;23625;48.784;9.336;2023-11-21T03:35:06;8.20;99.90
37786;DHT22;23625;48.784;9.336;2023-11-21T03:37:32;8.20;99.90
37786;DHT22;23625;48.784;9.336;2023-11-21T03:39:59;8.20;99.90
37786;DHT22;23625;48.784;9.336;2023-11-21T03:42:25;8.20;99.90
37786;DHT22;23625;48.784;9.336;2023-11-21T03:44:53;8.20;99.90
37786;DHT22;23625;48.784;9.336;2023-11-21T03:47:19;8.20;99.90
37786;DHT22;23625;48.784;9.336;2023-11-21T03:49:45;8.20;99.90
37786;DHT22;23625;48.784;9.336;2023-11-21T03:52:11;8.10;99.90
37786;DHT22;23625;48.784;9.336;2023-11-21T03:54:37;8.20;99.90
37786;DHT22;23625;48.784;9.336;2023-11-21T03:57:03;8.10;99.90
37786;DHT22;23625;48.784;9.336;2023-11-21T03:59:28;8.10;99.90
37786;DHT22;23625;48.784;9.336;2023-11-21T04:01:56;8.10;99.90
37786;DHT22;23625;48.784;9.336;2023-11-21T04:04:22;8.10;99.90
37786;DHT22;23625;48.784;9.336;2023-11-21T04:06:48;8.10;99.90
37786;DHT22;23625;48.784;9.336;2023-11-21T04:09:13;8.10;99.90
37786;DHT22;23625;48.784;9.336;2023-11-21T04:11:39;8.10;99.90
37786;DHT22;23625;48.784;9.336;2023-11-21T04:14:05;8.10;99.90
37786;DHT22;23625;48.784;9.336;2023-11-21T04:16:30;8.10;99.90
37786;DHT22;23625;48.784;9.336;2023-11-21T04:18:56;8.10;99.90
37786;DHT22;23625;48.784;9.336;2023-11-21T04:21:22;8.10;99.90
37786;DHT22;23625;48.784;9.336;2023-11-21T04:23:49;8.00;99.90
37786;DHT22;23625;48.784;9.336;2023-11-21T04:26:15;8.00;99.90
37786;DHT22;23625;48.784;9.336;2023-11-21T04:28:41;8.00;99.90
37786;DHT22;23625;48.784;9.336;2023-11-21T04:31:07;8.20;99.90
37786;DHT22;23625;48.784;9.336;2023-11-21T04:33:32;8.10;99.90
37786;DHT22;23625;48.784;9.336;2023-11-21T04:35:58;8.10;99.90
37786;DHT22;23625;48.784;9.336;2023-11-21T04:38:24;8.00;99.90
37786;DHT22;23625;48.784;9.336;2023-11-21T04:40:49;8.00;99.90
37786;DHT22;23625;48.784;9.336;2023-11-21T04:43:15;8.00;99.90
37786;DHT22;23625;48.784;9.336;2023-11-21T04:45:40;8.00;99.90
37786;DHT22;23625;48.784;9.336;2023-11-21T04:48:07;8.00;99.90
37786;DHT22;23625;48.784;9.336;2023-11-21T04:50:33;7.90;99.90
37786;DHT22;23625;48.784;9.336;2023-11-21T04:52:59;7.90;99.90
37786;DHT22;23625;48.784;9.336;2023-11-21T04:55:24;7.90;99.90
37786;DHT22;23625;48.784;9.336;2023-11-21T04:57:53;7.90;99.90
37786;DHT22;23625;48.784;9.336;2023-11-21T05:00:19;7.90;99.90
37786;DHT22;23625;48.784;9.336;2023-11-21T05:02:45;7.80;99.90
37786;DHT22;23625;48.784;9.336;2023-11-21T05:05:11;7.80;99.90
37786;DHT22;23625;48.784;9.336;2023-11-21T05:07:37;7.80;99.90
37786;DHT22;23625;48.784;9.336;2023-11-21T05:10:05;7.80;99.90
37786;DHT22;23625;48.784;9.336;2023-11-21T05:12:34;7.80;99.90
37786;DHT22;23625;48.784;9.336;2023-11-21T05:15:04;7.80;99.90
37786;DHT22;23625;48.784;9.336;2023-11-21T05:17:33;7.70;99.90
37786;DHT22;23625;48.784;9.336;2023-11-21T05:19:59;7.70;99.90
37786;DHT22;23625;48.784;9.336;2023-11-21T05:22:29;7.70;99.90
37786;DHT22;23625;48.784;9.336;2023-11-21T05:24:55;7.70;99.90
37786;DHT22;23625;48.784;9.336;2023-11-21T05:27:20;7.70;99.90
37786;DHT22;23625;48.784;9.336;2023-11-21T05:29:46;7.70;99.90
37786;DHT22;23625;48.784;9.336;2023-11-21T05:32:11;7.70;99.90
37786;DHT22;23625;48.784;9.336;2023-11-21T05:34:37;7.70;99.90
37786;DHT22;23625;48.784;9.336;2023-11-21T05:37:02;7.70;99.90
37786;DHT22;23625;48.784;9.336;2023-11-21T05:39:30;7.70;99.90
37786;DHT22;23625;48.784;9.336;2023-11-21T05:41:57;7.60;99.90
37786;DHT22;23625;48.784;9.336;2023-11-21T05:44:23;7.60;99.90
37786;DHT22;23625;48.784;9.336;2023-11-21T05:46:49;7.60;99.90
37786;DHT22;23625;48.784;9.336;2023-11-21T05:49:15;7.60;99.90
37786;DHT22;23625;48.784;9.336;2023-11-21T05:51:42;7.60;99.90
37786;DHT22;23625;48.784;9.336;2023-11-21T05:54:07;7.60;99.90
37786;DHT22;23625;48.784;9.336;2023-11-21T05:56:33;7.60;99.90
37786;DHT22;23625;48.784;9.336;2023-11-21T05:58:59;7.60;99.90
37786;DHT22;23625;48.784;9.336;2023-11-21T06:01:25;7.60;99.90
37786;DHT22;23625;48.784;9.336;2023-11-21T06:03:53;7.60;99.90
37786;DHT22;23625;48.784;9.336;2023-11-21T06:06:20;7.60;99.90
37786;DHT22;23625;48.784;9.336;2023-11-21T06:08:50;7.60;99.90
37786;DHT22;23625;48.784;9.336;2023-11-21T06:11:16;7.60;99.90
37786;DHT22;23625;48.784;9.336;2023-11-21T06:13:42;7.60;99.90
37786;DHT22;23625;48.784;9.336;2023-11-21T06:16:08;7.60;99.90
37786;DHT22;23625;48.784;9.336;2023-11-21T06:18:34;7.60;99.90
37786;DHT22;23625;48.784;9.336;2023-11-21T06:21:00;7.60;99.90
37786;DHT22;23625;48.784;9.336;2023-11-21T06:23:26;7.60;99.90
37786;DHT22;23625;48.784;9.336;2023-11-21T06:25:52;7.60;99.90
37786;DHT22;23625;48.784;9.336;2023-11-21T06:28:18;7.60;99.90
37786;DHT22;23625;48.784;9.336;2023-11-21T06:30:44;7.60;99.90
37786;DHT22;23625;48.784;9.336;2023-11-21T06:33:10;7.60;99.90
37786;DHT22;23625;48.784;9.336;2023-11-21T06:35:36;7.60;99.90
37786;DHT22;23625;48.784;9.336;2023-11-21T06:38:02;7.60;99.90
37786;DHT22;23625;48.784;9.336;2023-11-21T06:40:28;7.60;99.90
37786;DHT22;23625;48.784;9.336;2023-11-21T06:42:54;7.60;99.90
37786;DHT22;23625;48.784;9.336;2023-11-21T06:45:20;7.60;99.90
37786;DHT22;23625;48.784;9.336;2023-11-21T06:47:46;7.60;99.90
37786;DHT22;23625;48.784;9.336;2023-11-21T06:50:12;7.60;99.90
37786;DHT22;23625;48.784;9.336;2023-11-21T06:52:38;7.60;99.90
37786;DHT22;23625;48.784;9.336;2023-11-21T06:55:04;7.60;99.90
37786;DHT22;23625;48.784;9.336;2023-11-21T06:57:30;7.60;99.90
37786;DHT22;23625;48.784;9.336;2023-11-21T06:59:56;7.60;99.90
37786;DHT22;23625;48.784;9.336;2023-11-21T07:02:22;7.70;99.90
37786;DHT22;23625;48.784;9.336;2023-11-21T07:04:48;7.70;99.90
37786;DHT22;23625;48.784;9.336;2023-11-21T07:07:14;7.70;99.90
37786;DHT22;23625;48.784;9.336;2023-11-21T07:09:39;7.80;99.90
37786;DHT22;23625;48.784;9.336;2023-11-21T07:12:05;7.80;99.90
37786;DHT22;23625;48.784;9.336;2023-11-21T07:14:33;7.80;99.90
37786;DHT22;23625;48.784;9.336;2023-11-21T07:16:59;7.80;99.90
37786;DHT22;23625;48.784;9.336;2023-11-21T07:19:24;7.80;99.90
37786;DHT22;23625;48.784;9.336;2023-11-21T07:21:50;7.90;99.90
37786;DHT22;23625;48.784;9.336;2023-11-21T07:24:17;7.80;99.90
37786;DHT22;23625;48.784;9.336;2023-11-21T07:26:42;7.90;99.90
37786;DHT22;23625;48.784;9.336;2023-11-21T07:29:08;7.90;99.90
37786;DHT22;23625;48.784;9.336;2023-11-21T07:31:34;8.00;99.90
37786;DHT22;23625;48.784;9.336;2023-11-21T07:34:00;8.00;99.90
37786;DHT22;23625;48.784;9.336;2023-11-21T07:36:26;8.00;99.90
37786;DHT22;23625;48.784;9.336;2023-11-21T07:38:52;8.00;99.90
37786;DHT22;23625;48.784;9.336;2023-11-21T07:41:18;8.00;99.90
37786;DHT22;23625;48.784;9.336;2023-11-21T07:43:44;8.10;99.90
37786;DHT22;23625;48.784;9.336;2023-11-21T07:46:10;8.10;99.90
37786;DHT22;23625;48.784;9.336;2023-11-21T07:48:41;8.10;99.90
37786;DHT22;23625;48.784;9.336;2023-11-21T07:51:08;8.20;99.90
37786;DHT22;23625;48.784;9.336;2023-11-21T07:53:34;8.20;99.90
37786;DHT22;23625;48.784;9.336;2023-11-21T07:56:03;8.20;99.90
37786;DHT22;23625;48.784;9.336;2023-11-21T07:58:29;8.20;99.90
37786;DHT22;23625;48.784;9.336;2023-11-21T08:00:55;8.30;99.90
37786;DHT22;23625;48.784;9.336;2023-11-21T08:03:20;8.30;99.90
37786;DHT22;23625;48.784;9.336;2023-11-21T08:05:46;8.20;99.90
37786;DHT22;23625;48.784;9.336;2023-11-21T08:08:12;8.30;99.90
37786;DHT22;23625;48.784;9.336;2023-11-21T08:10:38;8.30;99.90
37786;DHT22;23625;48.784;9.336;2023-11-21T08:13:04;8.30;99.90
37786;DHT22;23625;48.784;9.336;2023-11-21T08:15:30;8.40;99.90
37786;DHT22;23625;48.784;9.336;2023-11-21T08:17:58;8.40;99.90
37786;DHT22;23625;48.784;9.336;2023-11-21T08:20:24;8.40;99.90
37786;DHT22;23625;48.784;9.336;2023-11-21T08:22:50;8.40;99.90
37786;DHT22;23625;48.784;9.336;2023-11-21T08:25:18;8.40;99.90
37786;DHT22;23625;48.784;9.336;2023-11-21T08:27:45;8.50;99.90
37786;DHT22;23625;48.784;9.336;2023-11-21T08:30:11;8.50;99.90
37786;DHT22;23625;48.784;9.336;2023-11-21T08:32:39;8.50;99.90
37786;DHT22;23625;48.784;9.336;2023-11-21T08:35:05;8.50;99.90
37786;DHT22;23625;48.784;9.336;2023-11-21T08:37:31;8.50;99.90
37786;DHT22;23625;48.784;9.336;2023-11-21T08:39:58;8.60;99.90
37786;DHT22;23625;48.784;9.336;2023-11-21T08:42:27;8.60;99.90
37786;DHT22;23625;48.784;9.336;2023-11-21T08:44:55;8.60;99.90
37786;DHT22;23625;48.784;9.336;2023-11-21T08:47:23;8.70;99.90
37786;DHT22;23625;48.784;9.336;2023-11-21T08:49:50;8.60;99.90
37786;DHT22;23625;48.784;9.336;2023-11-21T08:52:21;8.70;99.90
37786;DHT22;23625;48.784;9.336;2023-11-21T08:54:50;8.70;99.90
37786;DHT22;23625;48.784;9.336;2023-11-21T08:57:22;8.70;99.90
37786;DHT22;23625;48.784;9.336;2023-11-21T08:59:47;8.70;99.90
37786;DHT22;23625;48.784;9.336;2023-11-21T09:02:13;8.80;99.90
37786;DHT22;23625;48.784;9.336;2023-11-21T09:04:38;8.80;99.90
37786;DHT22;23625;48.784;9.336;2023-11-21T09:07:04;8.80;99.90
37786;DHT22;23625;48.784;9.336;2023-11-21T09:09:30;8.80;99.90
37786;DHT22;23625;48.784;9.336;2023-11-21T09:11:56;8.90;99.90
37786;DHT22;23625;48.784;9.336;2023-11-21T09:14:21;8.90;99.90
37786;DHT22;23625;48.784;9.336;2023-11-21T09:16:47;8.90;99.90
37786;DHT22;23625;48.784;9.336;2023-11-21T09:19:13;9.00;99.90
37786;DHT22;23625;48.784;9.336;2023-11-21T09:21:39;9.00;99.90
37786;DHT22;23625;48.784;9.336;2023-11-21T09:24:05;9.00;99.90
37786;DHT22;23625;48.784;9.336;2023-11-21T09:26:31;9.10;99.90
37786;DHT22;23625;48.784;9.336;2023-11-21T09:28:56;9.10;99.90
37786;DHT22;23625;48.784;9.336;2023-11-21T09:31:22;9.10;99.90
37786;DHT22;23625;48.784;9.336;2023-11-21T09:33:49;9.10;99.90
37786;DHT22;23625;48.784;9.336;2023-11-21T09:36:15;9.20;99.90
37786;DHT22;23625;48.784;9.336;2023-11-21T09:38:41;9.30;99.90
37786;DHT22;23625;48.784;9.336;2023-11-21T09:41:21;9.40;99.90
37786;DHT22;23625;48.784;9.336;2023-11-21T09:43:52;9.40;99.90
37786;DHT22;23625;48.784;9.336;2023-11-21T09:46:20;9.40;99.90
37786;DHT22;23625;48.784;9.336;2023-11-21T09:48:51;9.40;99.90
37786;DHT22;23625;48.784;9.336;2023-11-21T09:51:20;9.50;99.90
37786;DHT22;23625;48.784;9.336;2023-11-21T09:53:50;9.50;99.90
37786;DHT22;23625;48.784;9.336;2023-11-21T09:56:18;9.60;99.90
37786;DHT22;23625;48.784;9.336;2023-11-21T09:58:51;9.70;99.90
37786;DHT22;23625;48.784;9.336;2023-11-21T10:01:18;10.00;99.90
37786;DHT22;23625;48.784;9.336;2023-11-21T10:03:44;10.10;99.90
37786;DHT22;23625;48.784;9.336;2023-11-21T10:06:13;10.10;99.90
37786;DHT22;23625;48.784;9.336;2023-11-21T10:08:40;10.20;99.90
37786;DHT22;23625;48.784;9.336;2023-11-21T10:11:09;10.10;99.90
37786;DHT22;23625;48.784;9.336;2023-11-21T10:13:37;10.10;99.90
37786;DHT22;23625;48.784;9.336;2023-11-21T10:16:05;10.10;99.90
37786;DHT22;23625;48.784;9.336;2023-11-21T10:18:33;10.00;99.90
37786;DHT22;23625;48.784;9.336;2023-11-21T10:21:00;10.00;99.90
37786;DHT22;23625;48.784;9.336;2023-11-21T10:23:26;9.90;99.90
37786;DHT22;23625;48.784;9.336;2023-11-21T10:25:52;9.90;99.90
37786;DHT22;23625;48.784;9.336;2023-11-21T10:28:18;9.90;99.90
37786;DHT22;23625;48.784;9.336;2023-11-21T10:30:46;9.90;99.90
37786;DHT22;23625;48.784;9.336;2023-11-21T10:33:11;9.80;99.90
37786;DHT22;23625;48.784;9.336;2023-11-21T10:35:48;9.80;99.90
37786;DHT22;23625;48.784;9.336;2023-11-21T10:38:20;9.80;99.90
37786;DHT22;23625;48.784;9.336;2023-11-21T10:40:50;9.80;99.90
37786;DHT22;23625;48.784;9.336;2023-11-21T10:43:16;9.80;99.90
37786;DHT22;23625;48.784;9.336;2023-11-21T10:45:43;9.80;99.90
37786;DHT22;23625;48.784;9.336;2023-11-21T10:48:15;9.90;99.90
37786;DHT22;23625;48.784;9.336;2023-11-21T10:50:42;9.90;99.90
37786;DHT22;23625;48.784;9.336;2023-11-21T10:53:08;10.00;99.90
37786;DHT22;23625;48.784;9.336;2023-11-21T10:55:34;10.00;99.90
37786;DHT22;23625;48.784;9.336;2023-11-21T10:58:02;10.00;99.90
37786;DHT22;23625;48.784;9.336;2023-11-21T11:00:29;10.00;99.90
37786;DHT22;23625;48.784;9.336;2023-11-21T11:02:55;10.00;99.90
37786;DHT22;23625;48.784;9.336;2023-11-21T11:05:23;10.00;99.90
37786;DHT22;23625;48.784;9.336;2023-11-21T11:08:01;10.00;99.90
37786;DHT22;23625;48.784;9.336;2023-11-21T11:10:29;10.10;99.90
37786;DHT22;23625;48.784;9.336;2023-11-21T11:12:55;10.20;99.90
37786;DHT22;23625;48.784;9.336;2023-11-21T11:15:23;10.10;99.90
37786;DHT22;23625;48.784;9.336;2023-11-21T11:17:49;9.80;99.90
37786;DHT22;23625;48.784;9.336;2023-11-21T11:20:16;9.60;99.90
37786;DHT22;23625;48.784;9.336;2023-11-21T11:28:21;9.50;99.90
37786;DHT22;23625;48.784;9.336;2023-11-21T11:33:48;9.80;99.90
37786;DHT22;23625;48.784;9.336;2023-11-21T11:39:38;9.40;99.90
37786;DHT22;23625;48.784;9.336;2023-11-21T11:42:11;9.40;99.90
37786;DHT22;23625;48.784;9.336;2023-11-21T11:52:37;9.60;99.90
37786;DHT22;23625;48.784;9.336;2023-11-21T11:55:06;9.70;99.90
37786;DHT22;23625;48.784;9.336;2023-11-21T11:57:35;9.70;99.90
37786;DHT22;23625;48.784;9.336;2023-11-21T12:00:14;9.70;99.90
37786;DHT22;23625;48.784;9.336;2023-11-21T12:02:58;9.70;99.90
37786;DHT22;23625;48.784;9.336;2023-11-21T12:05:25;9.80;99.90
37786;DHT22;23625;48.784;9.336;2023-11-21T12:07:55;9.80;99.90
37786;DHT22;23625;48.784;9.336;2023-11-21T12:10:33;9.80;99.90
37786;DHT22;23625;48.784;9.336;2023-11-21T12:13:02;9.90;99.90
37786;DHT22;23625;48.784;9.336;2023-11-21T12:15:28;9.80;99.90
37786;DHT22;23625;48.784;9.336;2023-11-21T12:17:57;9.80;99.90
37786;DHT22;23625;48.784;9.336;2023-11-21T12:20:27;9.90;99.90
37786;DHT22;23625;48.784;9.336;2023-11-21T12:22:55;9.80;99.90
37786;DHT22;23625;48.784;9.336;2023-11-21T12:25:23;10.00;99.90
37786;DHT22;23625;48.784;9.336;2023-11-21T12:27:52;10.00;99.90
37786;DHT22;23625;48.784;9.336;2023-11-21T12:30:20;10.00;99.90
37786;DHT22;23625;48.784;9.336;2023-11-21T12:32:54;10.10;99.90
37786;DHT22;23625;48.784;9.336;2023-11-21T12:35:22;10.20;99.90
37786;DHT22;23625;48.784;9.336;2023-11-21T12:37:50;10.10;99.90
37786;DHT22;23625;48.784;9.336;2023-11-21T12:40:16;10.20;99.90
37786;DHT22;23625;48.784;9.336;2023-11-21T12:42:46;10.20;99.90
37786;DHT22;23625;48.784;9.336;2023-11-21T12:47:47;10.20;99.90
37786;DHT22;23625;48.784;9.336;2023-11-21T12:50:22;10.30;99.90
37786;DHT22;23625;48.784;9.336;2023-11-21T12:52:52;10.40;99.90
37786;DHT22;23625;48.784;9.336;2023-11-21T12:55:22;10.40;99.90
37786;DHT22;23625;48.784;9.336;2023-11-21T12:57:54;10.40;99.90
37786;DHT22;23625;48.784;9.336;2023-11-21T13:00:32;10.40;99.90
37786;DHT22;23625;48.784;9.336;2023-11-21T13:02:59;10.50;99.90
37786;DHT22;23625;48.784;9.336;2023-11-21T13:05:27;10.70;99.90
37786;DHT22;23625;48.784;9.336;2023-11-21T13:07:57;10.80;99.90
37786;DHT22;23625;48.784;9.336;2023-11-21T13:10:27;10.90;99.90
37786;DHT22;23625;48.784;9.336;2023-11-21T13:12:57;11.10;99.90
37786;DHT22;23625;48.784;9.336;2023-11-21T13:15:24;11.20;99.90
37786;DHT22;23625;48.784;9.336;2023-11-21T13:17:50;11.10;99.90
37786;DHT22;23625;48.784;9.336;2023-11-21T13:20:17;11.30;99.90
37786;DHT22;23625;48.784;9.336;2023-11-21T13:22:49;11.50;99.90
37786;DHT22;23625;48.784;9.336;2023-11-21T13:25:16;11.60;99.90
37786;DHT22;23625;48.784;9.336;2023-11-21T13:27:44;11.50;99.90
37786;DHT22;23625;48.784;9.336;2023-11-21T13:30:13;11.50;99.90
37786;DHT22;23625;48.784;9.336;2023-11-21T13:32:45;11.30;99.90
37786;DHT22;23625;48.784;9.336;2023-11-21T13:35:12;11.10;99.90
37786;DHT22;23625;48.784;9.336;2023-11-21T13:37:48;11.00;99.90
37786;DHT22;23625;48.784;9.336;2023-11-21T13:40:15;10.90;99.90
37786;DHT22;23625;48.784;9.336;2023-11-21T13:42:45;10.80;99.90
37786;DHT22;23625;48.784;9.336;2023-11-21T13:45:11;10.60;99.90
37786;DHT22;23625;48.784;9.336;2023-11-21T13:47:38;10.50;99.90
37786;DHT22;23625;48.784;9.336;2023-11-21T13:50:05;10.40;99.90
37786;DHT22;23625;48.784;9.336;2023-11-21T13:52:39;10.40;99.90
37786;DHT22;23625;48.784;9.336;2023-11-21T13:55:05;10.40;99.90
37786;DHT22;23625;48.784;9.336;2023-11-21T13:57:36;10.40;99.90
37786;DHT22;23625;48.784;9.336;2023-11-21T14:00:03;10.30;99.90
37786;DHT22;23625;48.784;9.336;2023-11-21T14:02:36;10.20;99.90
37786;DHT22;23625;48.784;9.336;2023-11-21T14:05:07;10.20;99.90
37786;DHT22;23625;48.784;9.336;2023-11-21T14:07:35;10.10;99.90
37786;DHT22;23625;48.784;9.336;2023-11-21T14:10:05;10.10;99.90
37786;DHT22;23625;48.784;9.336;2023-11-21T14:12:33;10.00;99.90
37786;DHT22;23625;48.784;9.336;2023-11-21T14:14:59;10.00;99.90
37786;DHT22;23625;48.784;9.336;2023-11-21T14:17:25;10.00;99.90
37786;DHT22;23625;48.784;9.336;2023-11-21T14:19:53;9.90;99.90
37786;DHT22;23625;48.784;9.336;2023-11-21T14:22:20;9.80;99.90
37786;DHT22;23625;48.784;9.336;2023-11-21T14:24:46;9.70;99.90
37786;DHT22;23625;48.784;9.336;2023-11-21T14:27:13;9.60;99.90
37786;DHT22;23625;48.784;9.336;2023-11-21T14:29:40;9.60;99.90
37786;DHT22;23625;48.784;9.336;2023-11-21T14:32:09;9.50;99.90
37786;DHT22;23625;48.784;9.336;2023-11-21T14:34:34;9.50;99.90
37786;DHT22;23625;48.784;9.336;2023-11-21T14:37:00;9.50;99.90
37786;DHT22;23625;48.784;9.336;2023-11-21T14:39:28;9.50;99.90
37786;DHT22;23625;48.784;9.336;2023-11-21T14:41:55;9.40;99.90
37786;DHT22;23625;48.784;9.336;2023-11-21T14:44:24;9.50;99.90
37786;DHT22;23625;48.784;9.336;2023-11-21T14:46:53;9.50;99.90
37786;DHT22;23625;48.784;9.336;2023-11-21T14:49:20;9.50;99.90
37786;DHT22;23625;48.784;9.336;2023-11-21T14:51:48;9.50;99.90
37786;DHT22;23625;48.784;9.336;2023-11-21T14:54:31;9.50;99.90
37786;DHT22;23625;48.784;9.336;2023-11-21T14:57:09;9.50;99.90
37786;DHT22;23625;48.784;9.336;2023-11-21T14:59:46;9.50;99.90
37786;DHT22;23625;48.784;9.336;2023-11-21T15:02:17;9.50;99.90
37786;DHT22;23625;48.784;9.336;2023-11-21T15:04:48;9.40;99.90
37786;DHT22;23625;48.784;9.336;2023-11-21T15:07:14;9.40;99.90
37786;DHT22;23625;48.784;9.336;2023-11-21T15:09:40;9.40;99.90
37786;DHT22;23625;48.784;9.336;2023-11-21T15:12:10;9.40;99.90
37786;DHT22;23625;48.784;9.336;2023-11-21T15:14:48;9.40;99.90
37786;DHT22;23625;48.784;9.336;2023-11-21T15:17:17;9.40;99.90
37786;DHT22;23625;48.784;9.336;2023-11-21T15:19:54;9.40;99.90
37786;DHT22;23625;48.784;9.336;2023-11-21T15:22:20;9.30;99.90
37786;DHT22;23625;48.784;9.336;2023-11-21T15:24:46;9.30;99.90
37786;DHT22;23625;48.784;9.336;2023-11-21T15:27:16;9.30;99.90
37786;DHT22;23625;48.784;9.336;2023-11-21T15:29:42;9.30;99.90
37786;DHT22;23625;48.784;9.336;2023-11-21T15:32:09;9.30;99.90
37786;DHT22;23625;48.784;9.336;2023-11-21T15:34:35;9.30;99.90
37786;DHT22;23625;48.784;9.336;2023-11-21T15:37:01;9.20;99.90
37786;DHT22;23625;48.784;9.336;2023-11-21T15:39:28;9.20;99.90
37786;DHT22;23625;48.784;9.336;2023-11-21T15:41:56;9.20;99.90
37786;DHT22;23625;48.784;9.336;2023-11-21T15:44:21;9.20;99.90
37786;DHT22;23625;48.784;9.336;2023-11-21T15:46:48;9.10;99.90
37786;DHT22;23625;48.784;9.336;2023-11-21T15:49:13;9.10;99.90
37786;DHT22;23625;48.784;9.336;2023-11-21T15:51:45;9.10;99.90
37786;DHT22;23625;48.784;9.336;2023-11-21T15:54:23;9.10;99.90
37786;DHT22;23625;48.784;9.336;2023-11-21T15:56:52;9.10;99.90
37786;DHT22;23625;48.784;9.336;2023-11-21T15:59:21;9.10;99.90
37786;DHT22;23625;48.784;9.336;2023-11-21T16:01:49;9.10;99.90
37786;DHT22;23625;48.784;9.336;2023-11-21T16:04:15;9.00;99.90